sensor_id;sensor_type;location;lat;lon;timestamp;temperature;humidity
2729;DHT22;1372;47.956;7.830;2022-08-14T00:01:22;20.50;92.60
2729;DHT22;1372;47.956;7.830;2022-08-14T00:03:52;20.40;92.90
2729;DHT22;1372;47.956;7.830;2022-08-14T00:06:20;20.30;93.10
2729;DHT22;1372;47.956;7.830;2022-08-14T00:08:52;20.30;93.10
2729;DHT22;1372;47.956;7.830;2022-08-14T00:11:23;20.20;93.10
2729;DHT22;1372;47.956;7.830;2022-08-14T00:13:52;20.10;93.50
2729;DHT22;1372;47.956;7.830;2022-08-14T00:16:22;20.00;93.60
2729;DHT22;1372;47.956;7.830;2022-08-14T00:19:09;19.90;93.70
2729;DHT22;1372;47.956;7.830;2022-08-14T00:21:46;19.80;93.60
2729;DHT22;1372;47.956;7.830;2022-08-14T00:24:17;19.90;93.50
2729;DHT22;1372;47.956;7.830;2022-08-14T00:27:09;19.90;93.60
2729;DHT22;1372;47.956;7.830;2022-08-14T00:29:38;19.80;93.80
2729;DHT22;1372;47.956;7.830;2022-08-14T00:32:09;19.70;94.30
2729;DHT22;1372;47.956;7.830;2022-08-14T00:35:16;19.70;94.00
2729;DHT22;1372;47.956;7.830;2022-08-14T00:37:46;19.60;94.20
2729;DHT22;1372;47.956;7.830;2022-08-14T00:40:34;19.40;94.40
2729;DHT22;1372;47.956;7.830;2022-08-14T00:43:03;19.40;94.30
2729;DHT22;1372;47.956;7.830;2022-08-14T00:45:32;19.40;94.30
2729;DHT22;1372;47.956;7.830;2022-08-14T00:48:01;19.40;94.30
2729;DHT22;1372;47.956;7.830;2022-08-14T00:50:43;19.50;94.50
2729;DHT22;1372;47.956;7.830;2022-08-14T00:53:32;19.50;94.10
2729;DHT22;1372;47.956;7.830;2022-08-14T00:56:02;19.40;94.30
2729;DHT22;1372;47.956;7.830;2022-08-14T00:58:35;19.40;94.40
2729;DHT22;1372;47.956;7.830;2022-08-14T01:01:08;19.30;94.50
2729;DHT22;1372;47.956;7.830;2022-08-14T01:03:38;19.30;94.70
2729;DHT22;1372;47.956;7.830;2022-08-14T01:06:12;19.20;95.00
2729;DHT22;1372;47.956;7.830;2022-08-14T01:08:43;19.20;94.80
2729;DHT22;1372;47.956;7.830;2022-08-14T01:11:22;19.10;94.90
2729;DHT22;1372;47.956;7.830;2022-08-14T01:13:51;19.10;94.40
2729;DHT22;1372;47.956;7.830;2022-08-14T01:16:27;19.00;94.60
2729;DHT22;1372;47.956;7.830;2022-08-14T01:19:17;18.90;94.80
2729;DHT22;1372;47.956;7.830;2022-08-14T01:22:24;18.90;95.10
2729;DHT22;1372;47.956;7.830;2022-08-14T01:24:53;18.80;95.20
2729;DHT22;1372;47.956;7.830;2022-08-14T01:27:43;18.70;95.50
2729;DHT22;1372;47.956;7.830;2022-08-14T01:30:20;18.60;95.70
2729;DHT22;1372;47.956;7.830;2022-08-14T01:32:53;18.50;95.90
2729;DHT22;1372;47.956;7.830;2022-08-14T01:35:22;18.60;96.10
2729;DHT22;1372;47.956;7.830;2022-08-14T01:38:14;18.50;95.50
2729;DHT22;1372;47.956;7.830;2022-08-14T01:40:45;18.40;95.90
2729;DHT22;1372;47.956;7.830;2022-08-14T01:43:43;18.50;96.00
2729;DHT22;1372;47.956;7.830;2022-08-14T01:46:43;18.20;96.10
2729;DHT22;1372;47.956;7.830;2022-08-14T01:49:14;18.20;96.10
2729;DHT22;1372;47.956;7.830;2022-08-14T01:51:43;18.10;96.30
2729;DHT22;1372;47.956;7.830;2022-08-14T01:54:33;18.10;96.40
2729;DHT22;1372;47.956;7.830;2022-08-14T01:57:04;18.10;96.50
2729;DHT22;1372;47.956;7.830;2022-08-14T01:59:37;18.00;96.40
2729;DHT22;1372;47.956;7.830;2022-08-14T02:02:10;18.00;96.40
2729;DHT22;1372;47.956;7.830;2022-08-14T02:04:45;18.00;96.50
2729;DHT22;1372;47.956;7.830;2022-08-14T02:07:23;17.90;96.90
2729;DHT22;1372;47.956;7.830;2022-08-14T02:09:54;17.90;96.80
2729;DHT22;1372;47.956;7.830;2022-08-14T02:12:24;17.90;96.00
2729;DHT22;1372;47.956;7.830;2022-08-14T02:14:55;17.90;96.30
2729;DHT22;1372;47.956;7.830;2022-08-14T02:17:27;17.90;96.70
2729;DHT22;1372;47.956;7.830;2022-08-14T02:19:58;17.90;97.10
2729;DHT22;1372;47.956;7.830;2022-08-14T02:22:27;17.70;96.90
2729;DHT22;1372;47.956;7.830;2022-08-14T02:25:03;17.60;97.10
2729;DHT22;1372;47.956;7.830;2022-08-14T02:27:33;17.60;96.90
2729;DHT22;1372;47.956;7.830;2022-08-14T02:30:23;17.60;96.70
2729;DHT22;1372;47.956;7.830;2022-08-14T02:32:53;17.60;96.90
2729;DHT22;1372;47.956;7.830;2022-08-14T02:35:22;17.60;96.80
2729;DHT22;1372;47.956;7.830;2022-08-14T02:37:59;17.70;96.60
2729;DHT22;1372;47.956;7.830;2022-08-14T02:40:31;17.60;96.80
2729;DHT22;1372;47.956;7.830;2022-08-14T02:43:00;17.60;96.90
2729;DHT22;1372;47.956;7.830;2022-08-14T02:45:51;17.50;96.90
2729;DHT22;1372;47.956;7.830;2022-08-14T02:48:20;17.40;97.30
2729;DHT22;1372;47.956;7.830;2022-08-14T02:51:10;17.40;97.40
2729;DHT22;1372;47.956;7.830;2022-08-14T02:53:43;17.40;97.50
2729;DHT22;1372;47.956;7.830;2022-08-14T02:56:34;17.30;97.60
2729;DHT22;1372;47.956;7.830;2022-08-14T02:59:26;17.30;97.80
2729;DHT22;1372;47.956;7.830;2022-08-14T03:02:15;17.30;98.00
2729;DHT22;1372;47.956;7.830;2022-08-14T03:05:01;17.10;98.00
2729;DHT22;1372;47.956;7.830;2022-08-14T03:07:29;17.10;98.00
2729;DHT22;1372;47.956;7.830;2022-08-14T03:10:00;17.10;97.80
2729;DHT22;1372;47.956;7.830;2022-08-14T03:12:52;17.00;98.20
2729;DHT22;1372;47.956;7.830;2022-08-14T03:15:21;16.90;98.50
2729;DHT22;1372;47.956;7.830;2022-08-14T03:17:50;16.90;98.50
2729;DHT22;1372;47.956;7.830;2022-08-14T03:20:24;16.90;98.40
2729;DHT22;1372;47.956;7.830;2022-08-14T03:22:58;16.90;98.30
2729;DHT22;1372;47.956;7.830;2022-08-14T03:25:29;16.90;98.20
2729;DHT22;1372;47.956;7.830;2022-08-14T03:28:21;16.90;98.20
2729;DHT22;1372;47.956;7.830;2022-08-14T03:30:59;16.90;98.10
2729;DHT22;1372;47.956;7.830;2022-08-14T03:33:28;16.90;98.30
2729;DHT22;1372;47.956;7.830;2022-08-14T03:36:05;16.80;97.90
2729;DHT22;1372;47.956;7.830;2022-08-14T03:38:58;16.80;97.90
2729;DHT22;1372;47.956;7.830;2022-08-14T03:41:38;16.90;98.00
2729;DHT22;1372;47.956;7.830;2022-08-14T03:44:08;17.00;97.30
2729;DHT22;1372;47.956;7.830;2022-08-14T03:46:57;16.90;97.30
2729;DHT22;1372;47.956;7.830;2022-08-14T03:49:26;16.90;97.40
2729;DHT22;1372;47.956;7.830;2022-08-14T03:51:57;16.80;97.60
2729;DHT22;1372;47.956;7.830;2022-08-14T03:54:29;16.80;97.40
2729;DHT22;1372;47.956;7.830;2022-08-14T03:57:02;16.80;97.20
2729;DHT22;1372;47.956;7.830;2022-08-14T03:59:52;16.90;97.30
2729;DHT22;1372;47.956;7.830;2022-08-14T04:02:20;17.00;97.00
2729;DHT22;1372;47.956;7.830;2022-08-14T04:04:59;16.90;97.00
2729;DHT22;1372;47.956;7.830;2022-08-14T04:07:34;16.90;97.10
2729;DHT22;1372;47.956;7.830;2022-08-14T04:10:06;16.80;97.30
2729;DHT22;1372;47.956;7.830;2022-08-14T04:12:36;16.70;97.40
2729;DHT22;1372;47.956;7.830;2022-08-14T04:15:26;16.60;97.40
2729;DHT22;1372;47.956;7.830;2022-08-14T04:17:55;16.70;97.10
2729;DHT22;1372;47.956;7.830;2022-08-14T04:20:25;16.80;96.60
2729;DHT22;1372;47.956;7.830;2022-08-14T04:23:13;16.90;96.70
2729;DHT22;1372;47.956;7.830;2022-08-14T04:25:44;16.70;97.20
2729;DHT22;1372;47.956;7.830;2022-08-14T04:28:13;16.70;97.30
2729;DHT22;1372;47.956;7.830;2022-08-14T04:31:03;16.70;97.40
2729;DHT22;1372;47.956;7.830;2022-08-14T04:33:33;16.70;97.30
2729;DHT22;1372;47.956;7.830;2022-08-14T04:36:22;16.70;96.90
2729;DHT22;1372;47.956;7.830;2022-08-14T04:38:50;16.60;97.00
2729;DHT22;1372;47.956;7.830;2022-08-14T04:41:38;16.50;97.10
2729;DHT22;1372;47.956;7.830;2022-08-14T04:44:24;16.50;97.20
2729;DHT22;1372;47.956;7.830;2022-08-14T04:47:04;16.70;96.60
2729;DHT22;1372;47.956;7.830;2022-08-14T04:49:50;16.80;96.60
2729;DHT22;1372;47.956;7.830;2022-08-14T04:52:23;16.70;96.50
2729;DHT22;1372;47.956;7.830;2022-08-14T04:54:52;16.80;96.60
2729;DHT22;1372;47.956;7.830;2022-08-14T04:57:21;16.90;97.00
2729;DHT22;1372;47.956;7.830;2022-08-14T04:59:51;17.10;97.00
2729;DHT22;1372;47.956;7.830;2022-08-14T05:02:21;17.30;96.70
2729;DHT22;1372;47.956;7.830;2022-08-14T05:04:53;17.30;96.70
2729;DHT22;1372;47.956;7.830;2022-08-14T05:07:23;17.30;96.90
2729;DHT22;1372;47.956;7.830;2022-08-14T05:10:00;17.20;97.00
2729;DHT22;1372;47.956;7.830;2022-08-14T05:12:39;17.10;97.50
2729;DHT22;1372;47.956;7.830;2022-08-14T05:15:28;17.00;97.70
2729;DHT22;1372;47.956;7.830;2022-08-14T05:18:01;16.90;97.80
2729;DHT22;1372;47.956;7.830;2022-08-14T05:20:45;17.00;97.90
2729;DHT22;1372;47.956;7.830;2022-08-14T05:23:33;17.10;97.90
2729;DHT22;1372;47.956;7.830;2022-08-14T05:26:23;17.10;98.50
2729;DHT22;1372;47.956;7.830;2022-08-14T05:28:51;17.10;98.30
2729;DHT22;1372;47.956;7.830;2022-08-14T05:31:20;17.10;98.20
2729;DHT22;1372;47.956;7.830;2022-08-14T05:33:51;17.10;98.40
2729;DHT22;1372;47.956;7.830;2022-08-14T05:36:21;17.00;97.80
2729;DHT22;1372;47.956;7.830;2022-08-14T05:38:49;16.90;98.30
2729;DHT22;1372;47.956;7.830;2022-08-14T05:41:19;16.90;98.70
2729;DHT22;1372;47.956;7.830;2022-08-14T05:43:50;17.00;99.30
2729;DHT22;1372;47.956;7.830;2022-08-14T05:46:20;17.00;98.50
2729;DHT22;1372;47.956;7.830;2022-08-14T05:48:51;17.00;98.60
2729;DHT22;1372;47.956;7.830;2022-08-14T05:51:22;17.10;98.80
2729;DHT22;1372;47.956;7.830;2022-08-14T05:53:52;17.20;98.60
2729;DHT22;1372;47.956;7.830;2022-08-14T05:56:23;17.20;98.70
2729;DHT22;1372;47.956;7.830;2022-08-14T05:58:53;17.30;99.20
2729;DHT22;1372;47.956;7.830;2022-08-14T06:01:22;17.40;98.70
2729;DHT22;1372;47.956;7.830;2022-08-14T06:04:11;17.50;98.60
2729;DHT22;1372;47.956;7.830;2022-08-14T06:06:40;17.50;98.20
2729;DHT22;1372;47.956;7.830;2022-08-14T06:09:29;17.70;98.00
2729;DHT22;1372;47.956;7.830;2022-08-14T06:12:02;17.80;97.40
2729;DHT22;1372;47.956;7.830;2022-08-14T06:14:31;17.80;97.40
2729;DHT22;1372;47.956;7.830;2022-08-14T06:17:00;18.00;97.40
2729;DHT22;1372;47.956;7.830;2022-08-14T06:19:30;18.20;97.10
2729;DHT22;1372;47.956;7.830;2022-08-14T06:22:19;18.30;97.20
2729;DHT22;1372;47.956;7.830;2022-08-14T06:24:47;18.40;98.00
2729;DHT22;1372;47.956;7.830;2022-08-14T06:27:16;18.50;98.30
2729;DHT22;1372;47.956;7.830;2022-08-14T06:29:46;18.60;98.00
2729;DHT22;1372;47.956;7.830;2022-08-14T06:32:34;18.70;97.90
2729;DHT22;1372;47.956;7.830;2022-08-14T06:35:08;18.90;97.70
2729;DHT22;1372;47.956;7.830;2022-08-14T06:37:43;19.00;96.70
2729;DHT22;1372;47.956;7.830;2022-08-14T06:40:15;19.10;95.60
2729;DHT22;1372;47.956;7.830;2022-08-14T06:43:09;19.20;95.50
2729;DHT22;1372;47.956;7.830;2022-08-14T06:45:47;19.40;95.60
2729;DHT22;1372;47.956;7.830;2022-08-14T06:48:22;19.60;95.80
2729;DHT22;1372;47.956;7.830;2022-08-14T06:51:12;19.70;96.00
2729;DHT22;1372;47.956;7.830;2022-08-14T06:54:00;19.80;96.50
2729;DHT22;1372;47.956;7.830;2022-08-14T06:56:32;19.90;96.80
2729;DHT22;1372;47.956;7.830;2022-08-14T06:59:01;20.00;96.60
2729;DHT22;1372;47.956;7.830;2022-08-14T07:01:31;20.10;96.50
2729;DHT22;1372;47.956;7.830;2022-08-14T07:04:17;20.30;96.10
2729;DHT22;1372;47.956;7.830;2022-08-14T07:07:04;20.40;95.80
2729;DHT22;1372;47.956;7.830;2022-08-14T07:09:34;20.40;95.30
2729;DHT22;1372;47.956;7.830;2022-08-14T07:12:07;20.50;95.20
2729;DHT22;1372;47.956;7.830;2022-08-14T07:14:36;20.70;94.90
2729;DHT22;1372;47.956;7.830;2022-08-14T07:17:24;20.80;94.70
2729;DHT22;1372;47.956;7.830;2022-08-14T07:19:56;20.80;94.70
2729;DHT22;1372;47.956;7.830;2022-08-14T07:22:41;21.00;94.70
2729;DHT22;1372;47.956;7.830;2022-08-14T07:25:16;21.20;94.90
2729;DHT22;1372;47.956;7.830;2022-08-14T07:27:45;21.30;95.10
2729;DHT22;1372;47.956;7.830;2022-08-14T07:30:15;21.40;95.20
2729;DHT22;1372;47.956;7.830;2022-08-14T07:33:01;21.50;94.90
2729;DHT22;1372;47.956;7.830;2022-08-14T07:35:31;21.50;94.20
2729;DHT22;1372;47.956;7.830;2022-08-14T07:38:05;21.60;93.90
2729;DHT22;1372;47.956;7.830;2022-08-14T07:40:34;21.70;93.60
2729;DHT22;1372;47.956;7.830;2022-08-14T07:43:03;21.80;94.00
2729;DHT22;1372;47.956;7.830;2022-08-14T07:45:39;21.90;94.10
2729;DHT22;1372;47.956;7.830;2022-08-14T07:48:08;21.90;94.00
2729;DHT22;1372;47.956;7.830;2022-08-14T07:50:38;22.00;93.80
2729;DHT22;1372;47.956;7.830;2022-08-14T07:53:28;22.00;93.50
2729;DHT22;1372;47.956;7.830;2022-08-14T07:55:57;22.00;93.70
2729;DHT22;1372;47.956;7.830;2022-08-14T07:58:35;22.00;93.10
2729;DHT22;1372;47.956;7.830;2022-08-14T08:01:06;22.00;93.40
2729;DHT22;1372;47.956;7.830;2022-08-14T08:03:55;22.10;93.30
2729;DHT22;1372;47.956;7.830;2022-08-14T08:06:30;22.10;93.50
2729;DHT22;1372;47.956;7.830;2022-08-14T08:09:01;22.20;93.00
2729;DHT22;1372;47.956;7.830;2022-08-14T08:11:32;22.20;93.40
2729;DHT22;1372;47.956;7.830;2022-08-14T08:14:23;22.30;93.10
2729;DHT22;1372;47.956;7.830;2022-08-14T08:16:53;22.40;93.00
2729;DHT22;1372;47.956;7.830;2022-08-14T08:19:25;22.50;92.40
2729;DHT22;1372;47.956;7.830;2022-08-14T08:21:55;22.60;91.10
2729;DHT22;1372;47.956;7.830;2022-08-14T08:24:26;22.70;90.80
2729;DHT22;1372;47.956;7.830;2022-08-14T08:26:55;22.80;91.00
2729;DHT22;1372;47.956;7.830;2022-08-14T08:29:24;23.00;90.50
2729;DHT22;1372;47.956;7.830;2022-08-14T08:31:55;23.10;91.00
2729;DHT22;1372;47.956;7.830;2022-08-14T08:34:28;23.30;91.10
2729;DHT22;1372;47.956;7.830;2022-08-14T08:36:57;23.30;91.50
2729;DHT22;1372;47.956;7.830;2022-08-14T08:39:43;23.40;91.50
2729;DHT22;1372;47.956;7.830;2022-08-14T08:42:30;23.50;91.60
2729;DHT22;1372;47.956;7.830;2022-08-14T08:45:06;23.50;91.60
2729;DHT22;1372;47.956;7.830;2022-08-14T08:47:38;23.50;92.20
2729;DHT22;1372;47.956;7.830;2022-08-14T08:50:23;23.50;92.00
2729;DHT22;1372;47.956;7.830;2022-08-14T08:52:59;23.60;91.30
2729;DHT22;1372;47.956;7.830;2022-08-14T08:55:36;23.60;91.40
2729;DHT22;1372;47.956;7.830;2022-08-14T08:58:08;23.70;91.10
2729;DHT22;1372;47.956;7.830;2022-08-14T09:00:40;23.80;90.60
2729;DHT22;1372;47.956;7.830;2022-08-14T09:03:11;23.90;91.30
2729;DHT22;1372;47.956;7.830;2022-08-14T09:05:49;23.90;90.20
2729;DHT22;1372;47.956;7.830;2022-08-14T09:08:21;24.00;91.00
2729;DHT22;1372;47.956;7.830;2022-08-14T09:10:55;24.10;90.50
2729;DHT22;1372;47.956;7.830;2022-08-14T09:13:25;24.20;88.80
2729;DHT22;1372;47.956;7.830;2022-08-14T09:15:59;24.20;90.00
2729;DHT22;1372;47.956;7.830;2022-08-14T09:18:28;24.30;89.60
2729;DHT22;1372;47.956;7.830;2022-08-14T09:21:16;24.40;88.10
2729;DHT22;1372;47.956;7.830;2022-08-14T09:24:06;24.60;88.50
2729;DHT22;1372;47.956;7.830;2022-08-14T09:27:14;24.70;87.60
2729;DHT22;1372;47.956;7.830;2022-08-14T09:29:50;24.80;87.20
2729;DHT22;1372;47.956;7.830;2022-08-14T09:32:29;24.80;87.80
2729;DHT22;1372;47.956;7.830;2022-08-14T09:35:52;24.90;87.90
2729;DHT22;1372;47.956;7.830;2022-08-14T09:38:42;25.00;89.00
2729;DHT22;1372;47.956;7.830;2022-08-14T09:41:28;25.10;88.20
2729;DHT22;1372;47.956;7.830;2022-08-14T09:44:37;25.10;88.10
2729;DHT22;1372;47.956;7.830;2022-08-14T09:47:12;25.20;87.50
2729;DHT22;1372;47.956;7.830;2022-08-14T09:49:44;25.20;87.80
2729;DHT22;1372;47.956;7.830;2022-08-14T09:52:19;25.30;88.30
2729;DHT22;1372;47.956;7.830;2022-08-14T09:54:50;25.40;88.40
2729;DHT22;1372;47.956;7.830;2022-08-14T09:57:24;25.50;88.70
2729;DHT22;1372;47.956;7.830;2022-08-14T09:59:56;25.60;87.90
2729;DHT22;1372;47.956;7.830;2022-08-14T10:02:28;25.60;88.30
2729;DHT22;1372;47.956;7.830;2022-08-14T10:05:04;25.80;87.70
2729;DHT22;1372;47.956;7.830;2022-08-14T10:07:36;25.80;87.00
2729;DHT22;1372;47.956;7.830;2022-08-14T10:10:30;25.80;87.20
2729;DHT22;1372;47.956;7.830;2022-08-14T10:13:04;26.00;87.00
2729;DHT22;1372;47.956;7.830;2022-08-14T10:15:44;26.00;85.80
2729;DHT22;1372;47.956;7.830;2022-08-14T10:18:16;26.00;86.00
2729;DHT22;1372;47.956;7.830;2022-08-14T10:20:53;26.10;85.50
2729;DHT22;1372;47.956;7.830;2022-08-14T10:23:25;26.20;83.90
2729;DHT22;1372;47.956;7.830;2022-08-14T10:26:01;26.30;84.40
2729;DHT22;1372;47.956;7.830;2022-08-14T10:28:53;26.40;84.00
2729;DHT22;1372;47.956;7.830;2022-08-14T10:31:31;26.40;83.50
2729;DHT22;1372;47.956;7.830;2022-08-14T10:34:04;26.40;84.70
2729;DHT22;1372;47.956;7.830;2022-08-14T10:36:40;26.50;84.40
2729;DHT22;1372;47.956;7.830;2022-08-14T10:39:15;26.50;83.60
2729;DHT22;1372;47.956;7.830;2022-08-14T10:41:47;26.50;84.10
2729;DHT22;1372;47.956;7.830;2022-08-14T10:44:49;26.60;83.20
2729;DHT22;1372;47.956;7.830;2022-08-14T10:47:20;26.70;84.50
2729;DHT22;1372;47.956;7.830;2022-08-14T10:50:05;26.80;82.80
2729;DHT22;1372;47.956;7.830;2022-08-14T10:52:38;26.80;82.70
2729;DHT22;1372;47.956;7.830;2022-08-14T10:55:10;26.80;83.00
2729;DHT22;1372;47.956;7.830;2022-08-14T10:57:48;27.00;83.10
2729;DHT22;1372;47.956;7.830;2022-08-14T11:00:19;27.20;81.60
2729;DHT22;1372;47.956;7.830;2022-08-14T11:02:58;27.20;83.50
2729;DHT22;1372;47.956;7.830;2022-08-14T11:05:39;27.30;82.10
2729;DHT22;1372;47.956;7.830;2022-08-14T11:08:12;27.30;83.10
2729;DHT22;1372;47.956;7.830;2022-08-14T11:10:43;27.40;82.80
2729;DHT22;1372;47.956;7.830;2022-08-14T11:13:17;27.40;82.70
2729;DHT22;1372;47.956;7.830;2022-08-14T11:15:47;27.50;83.60
2729;DHT22;1372;47.956;7.830;2022-08-14T11:18:21;27.50;85.00
2729;DHT22;1372;47.956;7.830;2022-08-14T11:20:58;27.50;84.50
2729;DHT22;1372;47.956;7.830;2022-08-14T11:23:32;27.50;85.40
2729;DHT22;1372;47.956;7.830;2022-08-14T11:26:06;27.60;86.50
2729;DHT22;1372;47.956;7.830;2022-08-14T11:28:37;27.70;88.20
2729;DHT22;1372;47.956;7.830;2022-08-14T11:31:13;27.70;90.30
2729;DHT22;1372;47.956;7.830;2022-08-14T11:33:47;27.80;91.30
2729;DHT22;1372;47.956;7.830;2022-08-14T11:36:36;27.90;91.40
2729;DHT22;1372;47.956;7.830;2022-08-14T11:39:26;28.00;90.80
2729;DHT22;1372;47.956;7.830;2022-08-14T11:42:01;28.10;91.70
2729;DHT22;1372;47.956;7.830;2022-08-14T11:44:35;28.10;92.20
2729;DHT22;1372;47.956;7.830;2022-08-14T11:47:12;28.10;91.80
2729;DHT22;1372;47.956;7.830;2022-08-14T11:49:47;28.10;92.50
2729;DHT22;1372;47.956;7.830;2022-08-14T11:52:21;28.20;93.00
2729;DHT22;1372;47.956;7.830;2022-08-14T11:54:56;28.30;93.00
2729;DHT22;1372;47.956;7.830;2022-08-14T11:57:26;28.30;93.10
2729;DHT22;1372;47.956;7.830;2022-08-14T12:00:00;28.40;93.80
2729;DHT22;1372;47.956;7.830;2022-08-14T12:02:51;28.50;93.50
2729;DHT22;1372;47.956;7.830;2022-08-14T12:05:34;28.40;93.70
2729;DHT22;1372;47.956;7.830;2022-08-14T12:08:32;28.50;93.60
2729;DHT22;1372;47.956;7.830;2022-08-14T12:11:09;28.50;93.90
2729;DHT22;1372;47.956;7.830;2022-08-14T12:13:42;28.40;94.00
2729;DHT22;1372;47.956;7.830;2022-08-14T12:16:13;28.40;94.20
2729;DHT22;1372;47.956;7.830;2022-08-14T12:18:47;28.50;93.90
2729;DHT22;1372;47.956;7.830;2022-08-14T12:21:20;28.40;94.00
2729;DHT22;1372;47.956;7.830;2022-08-14T12:23:59;28.30;93.80
2729;DHT22;1372;47.956;7.830;2022-08-14T12:26:30;28.10;93.90
2729;DHT22;1372;47.956;7.830;2022-08-14T12:29:07;28.00;93.90
2729;DHT22;1372;47.956;7.830;2022-08-14T12:31:39;28.00;93.90
2729;DHT22;1372;47.956;7.830;2022-08-14T12:34:12;28.00;94.10
2729;DHT22;1372;47.956;7.830;2022-08-14T12:36:48;28.10;94.10
2729;DHT22;1372;47.956;7.830;2022-08-14T12:39:19;28.10;93.90
2729;DHT22;1372;47.956;7.830;2022-08-14T12:41:51;28.00;93.80
2729;DHT22;1372;47.956;7.830;2022-08-14T12:44:39;28.00;94.30
2729;DHT22;1372;47.956;7.830;2022-08-14T12:47:11;28.00;94.20
2729;DHT22;1372;47.956;7.830;2022-08-14T12:50:04;28.10;94.30
2729;DHT22;1372;47.956;7.830;2022-08-14T12:52:36;28.20;94.40
2729;DHT22;1372;47.956;7.830;2022-08-14T12:55:29;28.30;93.90
2729;DHT22;1372;47.956;7.830;2022-08-14T12:58:24;28.30;93.50
2729;DHT22;1372;47.956;7.830;2022-08-14T13:01:02;28.20;93.70
2729;DHT22;1372;47.956;7.830;2022-08-14T13:03:44;28.20;93.50
2729;DHT22;1372;47.956;7.830;2022-08-14T13:06:15;28.20;92.90
2729;DHT22;1372;47.956;7.830;2022-08-14T13:08:46;28.10;92.40
2729;DHT22;1372;47.956;7.830;2022-08-14T13:11:21;28.00;91.60
2729;DHT22;1372;47.956;7.830;2022-08-14T13:13:57;28.00;89.80
2729;DHT22;1372;47.956;7.830;2022-08-14T13:16:28;27.80;88.60
2729;DHT22;1372;47.956;7.830;2022-08-14T13:19:02;27.70;88.00
2729;DHT22;1372;47.956;7.830;2022-08-14T13:21:33;27.70;87.50
2729;DHT22;1372;47.956;7.830;2022-08-14T13:24:26;27.60;86.60
2729;DHT22;1372;47.956;7.830;2022-08-14T13:27:01;27.60;86.30
2729;DHT22;1372;47.956;7.830;2022-08-14T13:29:39;27.60;85.70
2729;DHT22;1372;47.956;7.830;2022-08-14T13:32:10;27.60;86.20
2729;DHT22;1372;47.956;7.830;2022-08-14T13:35:00;27.70;87.10
2729;DHT22;1372;47.956;7.830;2022-08-14T13:37:49;27.70;86.40
2729;DHT22;1372;47.956;7.830;2022-08-14T13:40:23;27.70;85.70
2729;DHT22;1372;47.956;7.830;2022-08-14T13:42:54;27.60;85.50
2729;DHT22;1372;47.956;7.830;2022-08-14T13:45:26;27.40;86.00
2729;DHT22;1372;47.956;7.830;2022-08-14T13:48:00;27.40;85.90
2729;DHT22;1372;47.956;7.830;2022-08-14T13:50:29;27.30;86.40
2729;DHT22;1372;47.956;7.830;2022-08-14T13:53:02;27.20;86.90
2729;DHT22;1372;47.956;7.830;2022-08-14T13:55:32;27.00;87.30
2729;DHT22;1372;47.956;7.830;2022-08-14T13:58:02;27.00;88.40
2729;DHT22;1372;47.956;7.830;2022-08-14T14:00:32;26.90;88.80
2729;DHT22;1372;47.956;7.830;2022-08-14T14:03:22;26.90;88.10
2729;DHT22;1372;47.956;7.830;2022-08-14T14:05:52;26.90;87.60
2729;DHT22;1372;47.956;7.830;2022-08-14T14:08:23;26.90;88.40
2729;DHT22;1372;47.956;7.830;2022-08-14T14:11:20;26.80;87.80
2729;DHT22;1372;47.956;7.830;2022-08-14T14:13:52;26.80;88.60
2729;DHT22;1372;47.956;7.830;2022-08-14T14:16:22;26.80;88.80
2729;DHT22;1372;47.956;7.830;2022-08-14T14:18:57;27.00;88.20
2729;DHT22;1372;47.956;7.830;2022-08-14T14:21:35;27.00;88.10
2729;DHT22;1372;47.956;7.830;2022-08-14T14:24:26;27.00;88.60
2729;DHT22;1372;47.956;7.830;2022-08-14T14:27:05;27.00;88.40
2729;DHT22;1372;47.956;7.830;2022-08-14T14:29:57;27.00;88.80
2729;DHT22;1372;47.956;7.830;2022-08-14T14:32:30;27.00;88.20
2729;DHT22;1372;47.956;7.830;2022-08-14T14:35:01;27.00;88.20
2729;DHT22;1372;47.956;7.830;2022-08-14T14:37:30;27.00;88.30
2729;DHT22;1372;47.956;7.830;2022-08-14T14:39:59;26.90;88.80
2729;DHT22;1372;47.956;7.830;2022-08-14T14:43:12;26.90;87.50
2729;DHT22;1372;47.956;7.830;2022-08-14T14:45:43;26.90;87.60
2729;DHT22;1372;47.956;7.830;2022-08-14T14:48:13;26.80;88.30
2729;DHT22;1372;47.956;7.830;2022-08-14T14:50:42;26.80;88.30
2729;DHT22;1372;47.956;7.830;2022-08-14T14:53:10;26.70;88.90
2729;DHT22;1372;47.956;7.830;2022-08-14T14:55:40;26.70;89.50
2729;DHT22;1372;47.956;7.830;2022-08-14T14:58:31;26.70;88.20
2729;DHT22;1372;47.956;7.830;2022-08-14T15:01:16;26.60;87.60
2729;DHT22;1372;47.956;7.830;2022-08-14T15:03:51;26.70;87.10
2729;DHT22;1372;47.956;7.830;2022-08-14T15:06:40;26.70;87.00
2729;DHT22;1372;47.956;7.830;2022-08-14T15:09:10;26.80;86.60
2729;DHT22;1372;47.956;7.830;2022-08-14T15:11:44;26.80;87.00
2729;DHT22;1372;47.956;7.830;2022-08-14T15:14:17;26.80;87.30
2729;DHT22;1372;47.956;7.830;2022-08-14T15:17:07;26.70;87.50
2729;DHT22;1372;47.956;7.830;2022-08-14T15:19:36;26.80;87.60
2729;DHT22;1372;47.956;7.830;2022-08-14T15:22:06;26.80;86.50
2729;DHT22;1372;47.956;7.830;2022-08-14T15:24:37;26.80;87.10
2729;DHT22;1372;47.956;7.830;2022-08-14T15:27:06;26.70;87.50
2729;DHT22;1372;47.956;7.830;2022-08-14T15:29:37;26.70;87.80
2729;DHT22;1372;47.956;7.830;2022-08-14T15:32:09;26.70;88.20
2729;DHT22;1372;47.956;7.830;2022-08-14T15:34:38;26.60;89.00
2729;DHT22;1372;47.956;7.830;2022-08-14T15:37:32;26.60;88.10
2729;DHT22;1372;47.956;7.830;2022-08-14T15:40:10;26.50;89.10
2729;DHT22;1372;47.956;7.830;2022-08-14T15:42:43;26.50;89.10
2729;DHT22;1372;47.956;7.830;2022-08-14T15:45:15;26.40;89.40
2729;DHT22;1372;47.956;7.830;2022-08-14T15:47:44;26.40;89.80
2729;DHT22;1372;47.956;7.830;2022-08-14T15:50:21;26.30;90.30
2729;DHT22;1372;47.956;7.830;2022-08-14T15:53:11;26.20;90.50
2729;DHT22;1372;47.956;7.830;2022-08-14T15:55:43;26.20;91.00
2729;DHT22;1372;47.956;7.830;2022-08-14T15:58:16;26.10;91.20
2729;DHT22;1372;47.956;7.830;2022-08-14T16:00:46;26.10;91.70
2729;DHT22;1372;47.956;7.830;2022-08-14T16:03:33;26.10;92.00
2729;DHT22;1372;47.956;7.830;2022-08-14T16:06:11;26.00;92.20
2729;DHT22;1372;47.956;7.830;2022-08-14T16:09:02;26.00;92.40
2729;DHT22;1372;47.956;7.830;2022-08-14T16:11:36;26.00;92.80
2729;DHT22;1372;47.956;7.830;2022-08-14T16:14:05;25.90;92.70
2729;DHT22;1372;47.956;7.830;2022-08-14T16:16:35;25.90;92.50
2729;DHT22;1372;47.956;7.830;2022-08-14T16:19:19;25.90;92.40
2729;DHT22;1372;47.956;7.830;2022-08-14T16:21:49;25.90;92.40
2729;DHT22;1372;47.956;7.830;2022-08-14T16:24:25;25.90;92.70
2729;DHT22;1372;47.956;7.830;2022-08-14T16:26:55;25.90;92.30
2729;DHT22;1372;47.956;7.830;2022-08-14T16:29:27;25.90;92.50
2729;DHT22;1372;47.956;7.830;2022-08-14T16:32:00;25.90;92.00
2729;DHT22;1372;47.956;7.830;2022-08-14T16:34:49;25.90;91.80
2729;DHT22;1372;47.956;7.830;2022-08-14T16:37:21;25.90;91.70
2729;DHT22;1372;47.956;7.830;2022-08-14T16:40:17;25.90;91.80
2729;DHT22;1372;47.956;7.830;2022-08-14T16:42:48;25.90;91.80
2729;DHT22;1372;47.956;7.830;2022-08-14T16:45:51;25.80;91.60
2729;DHT22;1372;47.956;7.830;2022-08-14T16:48:22;25.80;91.70
2729;DHT22;1372;47.956;7.830;2022-08-14T16:51:14;25.80;91.90
2729;DHT22;1372;47.956;7.830;2022-08-14T16:53:44;25.80;92.10
2729;DHT22;1372;47.956;7.830;2022-08-14T16:56:16;25.70;92.20
2729;DHT22;1372;47.956;7.830;2022-08-14T16:59:05;25.80;92.30
2729;DHT22;1372;47.956;7.830;2022-08-14T17:01:37;25.80;92.40
2729;DHT22;1372;47.956;7.830;2022-08-14T17:04:11;25.80;92.60